createdAt,value
2017-07-06T00:01:56.755Z,18.60
2017-07-06T00:04:25.139Z,18.60
2017-07-06T00:06:54.270Z,18.60
2017-07-06T00:09:22.579Z,18.50
2017-07-06T00:11:50.974Z,18.50
2017-07-06T00:14:19.453Z,18.40
2017-07-06T00:16:48.563Z,18.20
2017-07-06T00:19:17.043Z,18.10
2017-07-06T00:21:45.332Z,18.10
2017-07-06T00:24:13.627Z,18.10
2017-07-06T00:26:41.957Z,18.10
2017-07-06T00:29:10.558Z,18.00
2017-07-06T00:31:39.638Z,18.00
2017-07-06T00:34:08.743Z,18.10
2017-07-06T00:36:38.369Z,18.00
2017-07-06T00:39:06.724Z,18.10
2017-07-06T00:41:35.800Z,18.10
2017-07-06T00:44:05.015Z,18.20
2017-07-06T00:46:34.082Z,18.10
2017-07-06T00:49:02.399Z,18.10
2017-07-06T00:51:30.699Z,18.10
2017-07-06T00:53:59.742Z,18.00
2017-07-06T00:56:28.049Z,18.00
2017-07-06T00:58:56.711Z,17.90
2017-07-06T01:01:24.991Z,17.90
2017-07-06T01:03:53.382Z,17.80
2017-07-06T01:06:21.719Z,17.80
2017-07-06T01:08:50.023Z,17.80
2017-07-06T01:11:19.124Z,17.70
2017-07-06T01:13:48.183Z,17.70
2017-07-06T01:16:16.511Z,17.60
2017-07-06T01:18:44.808Z,17.60
2017-07-06T01:21:13.451Z,17.60
2017-07-06T01:23:42.534Z,17.60
2017-07-06T01:26:10.839Z,17.50
2017-07-06T01:28:39.927Z,17.50
2017-07-06T01:31:08.295Z,17.50
2017-07-06T01:33:37.488Z,17.40
2017-07-06T01:36:06.627Z,17.40
2017-07-06T01:38:35.268Z,17.30
2017-07-06T01:41:03.560Z,17.40
2017-07-06T01:43:32.131Z,17.30
2017-07-06T01:46:01.210Z,17.30
2017-07-06T01:48:30.293Z,17.30
2017-07-06T01:50:58.627Z,17.20
2017-07-06T01:53:26.973Z,17.30
2017-07-06T01:55:56.076Z,17.40
2017-07-06T01:58:25.138Z,17.50
2017-07-06T02:00:53.646Z,17.40
2017-07-06T02:03:22.230Z,17.50
2017-07-06T02:05:51.731Z,17.50
2017-07-06T02:08:21.014Z,17.50
2017-07-06T02:10:49.420Z,17.40
2017-07-06T02:13:18.081Z,17.50
2017-07-06T02:15:46.459Z,17.50
2017-07-06T02:18:14.968Z,17.50
2017-07-06T02:20:44.033Z,17.50
2017-07-06T02:23:13.147Z,17.60
2017-07-06T02:25:41.458Z,17.50
2017-07-06T02:28:10.001Z,17.60
2017-07-06T02:30:39.079Z,17.60
2017-07-06T02:33:08.192Z,17.60
2017-07-06T02:35:36.563Z,17.50
2017-07-06T02:38:04.856Z,17.60
2017-07-06T02:40:33.941Z,17.50
2017-07-06T02:43:02.383Z,17.50
2017-07-06T02:45:30.691Z,17.50
2017-07-06T02:47:59.750Z,17.40
2017-07-06T02:50:28.056Z,17.40
2017-07-06T02:52:57.160Z,17.40
2017-07-06T02:55:26.462Z,17.30
2017-07-06T02:57:55.572Z,17.30
2017-07-06T03:00:23.931Z,17.20
2017-07-06T03:02:53.127Z,17.10
2017-07-06T03:05:22.191Z,17.10
2017-07-06T03:07:50.529Z,17.10
2017-07-06T03:10:18.879Z,17.00
2017-07-06T03:12:47.455Z,16.80
2017-07-06T03:15:16.567Z,16.60
2017-07-06T03:17:45.663Z,16.50
2017-07-06T03:20:14.844Z,16.50
2017-07-06T03:22:43.336Z,16.40
2017-07-06T03:25:12.031Z,16.40
2017-07-06T03:27:40.431Z,16.40
2017-07-06T03:30:08.851Z,16.40
2017-07-06T03:32:37.141Z,16.40
2017-07-06T03:35:05.638Z,16.50
2017-07-06T03:37:34.735Z,16.60
2017-07-06T03:40:03.831Z,16.70
2017-07-06T03:42:32.912Z,16.80
2017-07-06T03:45:01.975Z,16.90
2017-07-06T03:47:30.458Z,16.80
2017-07-06T03:49:58.744Z,16.90
2017-07-06T03:52:27.087Z,17.00
2017-07-06T03:54:55.422Z,17.10
2017-07-06T03:57:23.895Z,17.00
2017-07-06T03:59:52.989Z,17.10
2017-07-06T04:02:22.096Z,17.00
2017-07-06T04:04:51.281Z,17.10
2017-07-06T04:07:19.967Z,17.00
2017-07-06T04:09:49.053Z,17.20
2017-07-06T04:12:17.440Z,17.10
2017-07-06T04:14:46.541Z,17.40
2017-07-06T04:17:14.832Z,17.40
2017-07-06T04:19:43.398Z,17.50
2017-07-06T04:22:12.497Z,17.50
2017-07-06T04:24:40.799Z,17.50
2017-07-06T04:27:09.122Z,17.40
2017-07-06T04:29:37.424Z,17.50
2017-07-06T04:32:06.511Z,17.70
2017-07-06T04:34:34.889Z,17.70
2017-07-06T04:37:03.988Z,17.90
2017-07-06T04:39:32.369Z,17.90
2017-07-06T04:42:00.754Z,18.00
2017-07-06T04:44:29.159Z,18.20
2017-07-06T04:46:57.807Z,18.30
2017-07-06T04:49:26.869Z,18.60
2017-07-06T04:51:55.163Z,18.60
2017-07-06T04:54:23.562Z,18.80
2017-07-06T04:56:51.871Z,19.10
2017-07-06T04:59:20.191Z,19.30
2017-07-06T05:01:49.296Z,19.30
2017-07-06T05:04:18.387Z,19.20
2017-07-06T05:06:46.884Z,19.10
2017-07-06T05:09:15.297Z,19.30
2017-07-06T05:11:43.599Z,19.40
2017-07-06T05:14:11.899Z,19.70
2017-07-06T05:16:40.288Z,19.70
2017-07-06T05:19:08.603Z,19.90
2017-07-06T05:21:36.940Z,19.90
2017-07-06T05:24:06.046Z,20.10
2017-07-06T05:26:34.423Z,20.10
2017-07-06T05:29:02.798Z,20.20
2017-07-06T05:31:32.091Z,20.20
2017-07-06T05:34:01.199Z,20.20
2017-07-06T05:36:30.387Z,20.20
2017-07-06T05:38:59.483Z,20.30
2017-07-06T05:41:27.820Z,20.30
2017-07-06T05:43:56.157Z,20.30
2017-07-06T05:46:24.527Z,20.30
2017-07-06T05:48:52.859Z,20.30
2017-07-06T05:51:21.988Z,20.40
2017-07-06T05:53:51.282Z,20.50
2017-07-06T05:56:19.765Z,20.50
2017-07-06T05:58:48.826Z,20.80
2017-07-06T06:01:17.260Z,20.80
2017-07-06T06:03:46.308Z,21.20
2017-07-06T06:06:14.620Z,21.10
2017-07-06T06:08:42.990Z,21.30
2017-07-06T06:11:11.354Z,21.40
2017-07-06T06:13:39.742Z,21.40
2017-07-06T06:16:08.833Z,21.50
2017-07-06T06:18:38.132Z,21.50
2017-07-06T06:21:06.821Z,21.50
2017-07-06T06:23:36.018Z,21.60
2017-07-06T06:26:04.400Z,21.70
2017-07-06T06:28:32.747Z,22.00
2017-07-06T06:31:01.869Z,22.20
2017-07-06T06:33:30.958Z,22.30
2017-07-06T06:36:00.054Z,22.30
2017-07-06T06:38:29.258Z,22.40
2017-07-06T06:40:58.332Z,22.60
2017-07-06T06:43:27.548Z,22.60
2017-07-06T06:45:56.034Z,22.60
2017-07-06T06:48:24.305Z,22.50
2017-07-06T06:50:53.415Z,22.60
2017-07-06T06:53:21.750Z,22.50
2017-07-06T06:55:50.469Z,22.50
2017-07-06T06:58:18.772Z,22.60
2017-07-06T07:00:47.986Z,22.70
2017-07-06T07:03:16.323Z,22.80
2017-07-06T07:05:45.375Z,23.20
2017-07-06T07:08:13.737Z,23.20
2017-07-06T07:10:42.015Z,23.40
2017-07-06T07:13:10.329Z,23.70
2017-07-06T07:15:38.635Z,24.00
2017-07-06T07:18:07.089Z,24.30
2017-07-06T07:20:36.159Z,24.10
2017-07-06T07:23:04.463Z,24.10
2017-07-06T07:25:32.795Z,24.20
2017-07-06T07:28:01.099Z,24.30
2017-07-06T07:30:29.447Z,24.40
2017-07-06T07:32:57.767Z,24.70
2017-07-06T07:35:26.871Z,25.10
2017-07-06T07:37:55.183Z,25.10
2017-07-06T07:40:23.941Z,25.40
2017-07-06T07:42:52.310Z,25.60
2017-07-06T07:45:20.652Z,25.60
2017-07-06T07:47:49.077Z,25.60
2017-07-06T07:50:17.436Z,25.80
2017-07-06T07:52:45.813Z,26.10
2017-07-06T07:55:14.142Z,26.40
2017-07-06T07:57:42.835Z,26.30
2017-07-06T08:00:11.164Z,26.10
2017-07-06T08:02:39.471Z,25.80
2017-07-06T08:05:07.911Z,25.60
2017-07-06T08:07:36.982Z,25.30
2017-07-06T08:10:05.396Z,25.20
2017-07-06T08:12:33.706Z,25.20
2017-07-06T08:15:02.228Z,25.00
2017-07-06T08:17:30.635Z,24.80
2017-07-06T08:19:59.109Z,24.70
2017-07-06T08:22:28.215Z,24.20
2017-07-06T08:24:56.676Z,24.10
2017-07-06T08:27:25.778Z,24.10
2017-07-06T08:29:54.832Z,23.90
2017-07-06T08:32:23.152Z,23.90
2017-07-06T08:34:51.455Z,24.10
2017-07-06T08:37:20.004Z,24.30
2017-07-06T08:39:48.556Z,24.40
2017-07-06T08:42:16.887Z,24.50
2017-07-06T08:44:45.237Z,24.70
2017-07-06T08:47:13.565Z,24.80
2017-07-06T08:49:41.910Z,24.90
2017-07-06T08:52:10.230Z,25.00
2017-07-06T08:54:38.639Z,25.00
2017-07-06T08:57:06.976Z,25.00
2017-07-06T08:59:35.499Z,24.90
2017-07-06T09:02:04.576Z,25.20
2017-07-06T09:04:32.867Z,25.10
2017-07-06T09:07:02.080Z,25.20
2017-07-06T09:09:30.395Z,25.20
2017-07-06T09:11:58.822Z,25.40
2017-07-06T09:14:27.886Z,25.60
2017-07-06T09:16:56.215Z,25.60
2017-07-06T09:19:24.708Z,25.70
2017-07-06T09:21:53.120Z,25.80
2017-07-06T09:24:21.427Z,25.90
2017-07-06T09:26:49.740Z,25.90
2017-07-06T09:29:18.087Z,26.20
2017-07-06T09:31:46.415Z,26.40
2017-07-06T09:34:14.768Z,26.60
2017-07-06T09:36:43.068Z,26.80
2017-07-06T09:39:11.395Z,27.00
2017-07-06T09:41:40.476Z,27.10
2017-07-06T09:44:09.819Z,27.30
2017-07-06T09:46:38.136Z,27.20
2017-07-06T09:49:06.448Z,27.50
2017-07-06T09:51:34.779Z,27.60
2017-07-06T09:54:03.067Z,27.60
2017-07-06T09:56:31.414Z,27.70
2017-07-06T09:58:59.731Z,27.80
2017-07-06T10:01:28.844Z,28.00
2017-07-06T10:03:57.152Z,27.90
2017-07-06T10:06:25.704Z,28.10
2017-07-06T10:08:54.763Z,28.20
2017-07-06T10:11:23.123Z,28.10
2017-07-06T10:13:51.463Z,28.20
2017-07-06T10:16:19.847Z,28.00
2017-07-06T10:18:48.309Z,28.00
2017-07-06T10:21:17.383Z,28.20
2017-07-06T10:23:45.715Z,28.20
2017-07-06T10:26:14.198Z,28.20
2017-07-06T10:28:42.559Z,28.30
2017-07-06T10:31:10.867Z,28.50
2017-07-06T10:33:39.512Z,28.60
2017-07-06T10:36:08.027Z,28.60
2017-07-06T10:38:36.425Z,28.60
2017-07-06T10:41:04.754Z,28.70
2017-07-06T10:43:33.803Z,28.70
2017-07-06T10:46:02.136Z,28.70
2017-07-06T10:48:30.433Z,28.70
2017-07-06T10:50:58.765Z,28.70
2017-07-06T10:53:27.831Z,28.80
2017-07-06T10:55:56.339Z,28.80
2017-07-06T10:58:24.710Z,28.90
2017-07-06T11:00:53.785Z,28.90
2017-07-06T11:03:22.095Z,28.90
2017-07-06T11:05:50.402Z,28.90
2017-07-06T11:08:18.936Z,29.10
2017-07-06T11:10:47.232Z,29.00
2017-07-06T11:13:15.555Z,28.90
2017-07-06T11:15:43.906Z,28.90
2017-07-06T11:18:12.257Z,29.20
2017-07-06T11:20:41.326Z,29.60
2017-07-06T11:23:09.699Z,29.50
2017-07-06T11:25:38.008Z,29.70
2017-07-06T11:28:06.314Z,29.60
2017-07-06T11:30:34.687Z,29.50
2017-07-06T11:33:03.035Z,29.50
2017-07-06T11:35:32.123Z,29.30
2017-07-06T11:38:00.420Z,29.20
2017-07-06T11:40:29.103Z,29.40
2017-07-06T11:42:57.429Z,29.60
2017-07-06T11:45:25.728Z,29.80
2017-07-06T11:47:54.124Z,30.00
2017-07-06T11:50:23.190Z,30.40
2017-07-06T11:52:51.520Z,30.30
2017-07-06T11:55:19.815Z,30.30
2017-07-06T11:57:48.247Z,30.30
2017-07-06T12:00:17.320Z,30.30
2017-07-06T12:02:45.607Z,30.20
2017-07-06T12:05:13.926Z,30.40
2017-07-06T12:07:42.214Z,30.60
2017-07-06T12:10:10.551Z,30.40
2017-07-06T12:12:38.863Z,29.70
2017-07-06T12:15:07.723Z,29.40
2017-07-06T12:17:36.087Z,29.50
2017-07-06T12:20:04.347Z,29.70
2017-07-06T12:22:32.739Z,29.80
2017-07-06T12:25:01.840Z,29.50
2017-07-06T12:27:30.221Z,29.40
2017-07-06T12:29:59.293Z,28.70
2017-07-06T12:32:28.410Z,28.40
2017-07-06T12:34:56.741Z,28.40
2017-07-06T12:37:25.271Z,28.20
2017-07-06T12:39:53.947Z,27.80
2017-07-06T12:42:22.337Z,27.60
2017-07-06T12:44:50.682Z,27.50
2017-07-06T12:47:19.162Z,27.20
2017-07-06T12:49:47.571Z,27.30
2017-07-06T12:52:15.952Z,27.40
2017-07-06T12:54:45.030Z,27.60
2017-07-06T12:57:14.111Z,27.80
2017-07-06T12:59:43.504Z,27.70
2017-07-06T13:02:11.837Z,27.60
2017-07-06T13:04:40.190Z,27.90
2017-07-06T13:07:08.519Z,28.10
2017-07-06T13:09:36.847Z,28.30
2017-07-06T13:12:06.040Z,28.40
2017-07-06T13:14:35.095Z,28.30
2017-07-06T13:17:04.125Z,28.30
2017-07-06T13:19:33.219Z,28.10
2017-07-06T13:22:02.290Z,27.90
2017-07-06T13:24:31.409Z,27.80
2017-07-06T13:26:59.722Z,27.70
2017-07-06T13:29:28.080Z,27.80
2017-07-06T13:31:56.396Z,27.90
2017-07-06T13:34:24.727Z,27.80
2017-07-06T13:36:53.039Z,27.80
2017-07-06T13:39:21.676Z,27.90
2017-07-06T13:41:49.991Z,27.80
2017-07-06T13:44:18.297Z,27.80
2017-07-06T13:46:46.633Z,27.80
2017-07-06T13:49:14.974Z,27.90
2017-07-06T13:51:44.076Z,28.10
2017-07-06T13:54:13.140Z,28.10
2017-07-06T13:56:41.656Z,28.10
2017-07-06T13:59:10.023Z,28.30
2017-07-06T14:01:38.640Z,28.60
2017-07-06T14:04:06.963Z,28.70
2017-07-06T14:06:35.271Z,28.70
2017-07-06T14:09:04.372Z,28.80
2017-07-06T14:11:32.730Z,28.80
2017-07-06T14:14:01.100Z,28.70
2017-07-06T14:16:29.490Z,28.80
2017-07-06T14:18:57.883Z,28.60
2017-07-06T14:21:26.346Z,28.20
2017-07-06T14:23:55.592Z,28.00
2017-07-06T14:26:23.928Z,28.00
2017-07-06T14:28:53.195Z,28.00
2017-07-06T14:31:21.819Z,28.00
2017-07-06T14:33:50.906Z,28.10
2017-07-06T14:36:19.224Z,28.00
2017-07-06T14:38:47.515Z,28.00
2017-07-06T14:41:15.843Z,28.00
2017-07-06T14:43:44.152Z,28.00
2017-07-06T14:46:12.795Z,28.10
2017-07-06T14:48:41.872Z,28.30
2017-07-06T14:51:11.096Z,28.40
2017-07-06T14:53:39.693Z,28.40
2017-07-06T14:56:08.148Z,28.60
2017-07-06T14:58:37.244Z,29.00
2017-07-06T15:01:05.629Z,28.90
2017-07-06T15:03:33.947Z,29.20
2017-07-06T15:06:02.287Z,29.40
2017-07-06T15:08:30.659Z,29.70
2017-07-06T15:11:01.707Z,30.40
2017-07-06T15:13:30.040Z,30.30
2017-07-06T15:15:59.144Z,31.50
2017-07-06T15:18:27.665Z,31.40
2017-07-06T15:20:56.136Z,32.20
2017-07-06T15:23:24.510Z,32.80
2017-07-06T15:25:53.603Z,33.90
2017-07-06T15:28:22.716Z,34.40
2017-07-06T15:30:51.077Z,34.30
2017-07-06T15:33:20.151Z,36.00
2017-07-06T15:35:48.663Z,35.90
2017-07-06T15:40:47.327Z,36.90
2017-07-06T15:43:16.500Z,38.10
2017-07-06T15:45:44.924Z,38.00
2017-07-06T15:48:13.348Z,39.00
2017-07-06T15:50:41.695Z,39.40
2017-07-06T15:53:10.392Z,39.40
2017-07-06T15:55:38.740Z,39.80
2017-07-06T15:58:07.041Z,39.80
2017-07-06T16:00:35.503Z,40.00
2017-07-06T16:03:03.900Z,39.90
2017-07-06T16:05:32.220Z,39.40
2017-07-06T16:08:00.773Z,39.10
2017-07-06T16:10:29.128Z,38.80
2017-07-06T16:12:57.666Z,38.10
2017-07-06T16:15:26.078Z,36.60
2017-07-06T16:17:55.182Z,33.80
2017-07-06T16:20:23.736Z,33.70
2017-07-06T16:22:52.817Z,33.20
2017-07-06T16:25:21.228Z,33.10
2017-07-06T16:27:50.322Z,34.40
2017-07-06T16:30:18.646Z,34.30
2017-07-06T16:32:47.073Z,34.70
2017-07-06T16:35:16.583Z,34.80
2017-07-06T16:37:45.068Z,34.70
2017-07-06T16:40:14.167Z,33.80
2017-07-06T16:42:43.364Z,33.90
2017-07-06T16:45:12.559Z,34.20
2017-07-06T16:47:41.999Z,35.60
2017-07-06T16:50:10.350Z,35.50
2017-07-06T16:52:38.822Z,36.50
2017-07-06T16:55:07.394Z,36.50
2017-07-06T16:57:35.847Z,36.80
2017-07-06T17:00:04.883Z,37.30
2017-07-06T17:02:33.227Z,38.20
2017-07-06T17:05:02.342Z,37.90
2017-07-06T17:07:31.640Z,37.90
2017-07-06T17:10:00.606Z,37.80
2017-07-06T17:12:29.697Z,37.30
2017-07-06T17:14:58.103Z,37.30
2017-07-06T17:17:29.974Z,36.00
2017-07-06T17:19:59.364Z,35.40
2017-07-06T17:22:28.449Z,35.20
2017-07-06T17:24:57.521Z,34.70
2017-07-06T17:27:25.930Z,34.60
2017-07-06T17:29:54.320Z,34.10
2017-07-06T17:32:22.674Z,33.70
2017-07-06T17:34:51.002Z,33.30
2017-07-06T17:37:19.624Z,32.80
2017-07-06T17:39:48.036Z,32.50
2017-07-06T17:42:16.343Z,32.10
2017-07-06T17:44:44.939Z,31.80
2017-07-06T17:47:13.374Z,31.50
2017-07-06T17:49:42.545Z,30.90
2017-07-06T17:52:11.057Z,30.90
2017-07-06T17:54:40.550Z,30.50
2017-07-06T17:57:09.653Z,30.30
2017-07-06T17:59:38.028Z,30.10
2017-07-06T18:02:07.215Z,29.80
2017-07-06T18:04:36.467Z,29.60
2017-07-06T18:07:04.823Z,29.50
2017-07-06T18:09:33.142Z,29.40
2017-07-06T18:12:01.438Z,29.30
2017-07-06T18:14:30.547Z,29.20
2017-07-06T18:16:58.835Z,29.10
2017-07-06T18:19:27.187Z,29.20
2017-07-06T18:21:56.251Z,29.10
2017-07-06T18:24:24.557Z,29.00
2017-07-06T18:26:52.872Z,29.10
2017-07-06T18:29:21.175Z,29.00
2017-07-06T18:31:49.515Z,28.90
2017-07-06T18:34:17.991Z,28.80
2017-07-06T18:36:46.303Z,28.50
2017-07-06T18:39:14.679Z,28.30
2017-07-06T18:41:42.972Z,28.20
2017-07-06T18:44:11.389Z,28.20
2017-07-06T18:46:40.587Z,28.00
2017-07-06T18:49:08.930Z,27.90
2017-07-06T18:51:37.368Z,27.80
2017-07-06T18:54:05.734Z,27.50
2017-07-06T18:56:34.076Z,27.40
2017-07-06T18:59:02.446Z,27.30
2017-07-06T19:01:30.747Z,27.20
2017-07-06T19:03:59.155Z,27.10
2017-07-06T19:06:27.568Z,27.00
2017-07-06T19:08:55.979Z,26.90
2017-07-06T19:11:25.096Z,26.60
2017-07-06T19:13:53.423Z,26.50
2017-07-06T19:16:21.743Z,26.50
2017-07-06T19:18:50.104Z,26.40
2017-07-06T19:21:18.388Z,26.30
2017-07-06T19:23:46.707Z,26.20
2017-07-06T19:26:15.144Z,26.10
2017-07-06T19:28:43.506Z,26.00
2017-07-06T19:31:13.240Z,25.80
2017-07-06T19:33:42.439Z,25.60
2017-07-06T19:36:10.810Z,25.50
2017-07-06T19:38:39.219Z,25.50
2017-07-06T19:41:07.538Z,25.30
2017-07-06T19:43:35.847Z,25.20
2017-07-06T19:46:04.203Z,25.10
2017-07-06T19:48:32.503Z,25.00
2017-07-06T19:51:00.895Z,24.90
2017-07-06T19:53:29.232Z,24.80
2017-07-06T19:55:57.558Z,24.70
2017-07-06T19:58:26.112Z,24.50
2017-07-06T20:00:54.437Z,24.40
2017-07-06T20:03:22.761Z,24.30
2017-07-06T20:05:51.141Z,24.20
2017-07-06T20:08:19.927Z,24.10
2017-07-06T20:10:48.311Z,24.00
2017-07-06T20:13:17.505Z,23.90
2017-07-06T20:15:45.856Z,23.90
2017-07-06T20:18:14.996Z,23.90
2017-07-06T20:20:44.049Z,23.90
2017-07-06T20:23:12.346Z,23.80
2017-07-06T20:25:41.443Z,23.80
2017-07-06T20:28:10.506Z,23.80
2017-07-06T20:30:38.908Z,23.70
2017-07-06T20:33:08.024Z,23.70
2017-07-06T20:35:36.386Z,23.70
2017-07-06T20:38:05.584Z,23.60
2017-07-06T20:40:33.860Z,23.60
2017-07-06T20:43:02.945Z,23.60
2017-07-06T20:45:32.138Z,23.60
2017-07-06T20:48:01.335Z,23.60
2017-07-06T20:50:30.444Z,23.60
2017-07-06T20:52:59.639Z,23.60
2017-07-06T20:55:28.726Z,23.60
2017-07-06T20:57:57.142Z,23.50
2017-07-06T21:00:25.531Z,23.40
2017-07-06T21:02:53.895Z,23.30
2017-07-06T21:05:22.249Z,23.30
2017-07-06T21:07:50.646Z,23.20
2017-07-06T21:10:18.938Z,23.10
2017-07-06T21:12:47.327Z,23.10
2017-07-06T21:15:15.744Z,23.00
2017-07-06T21:17:44.842Z,22.90
2017-07-06T21:20:13.290Z,22.90
2017-07-06T21:22:41.591Z,22.90
2017-07-06T21:25:10.674Z,22.80
2017-07-06T21:27:39.015Z,22.70
2017-07-06T21:30:07.334Z,22.70
2017-07-06T21:32:35.657Z,22.70
2017-07-06T21:35:04.039Z,22.60
2017-07-06T21:37:32.598Z,22.60
2017-07-06T21:40:02.488Z,22.60
2017-07-06T21:42:30.789Z,22.50
2017-07-06T21:44:59.934Z,22.60
2017-07-06T21:47:28.354Z,22.50
2017-07-06T21:49:57.062Z,22.60
2017-07-06T21:52:25.420Z,22.60
2017-07-06T21:54:54.495Z,22.50
2017-07-06T21:57:23.614Z,22.40
2017-07-06T21:59:51.991Z,22.40
2017-07-06T22:02:21.085Z,22.30
2017-07-06T22:04:50.176Z,22.30
2017-07-06T22:07:18.758Z,22.20
2017-07-06T22:09:47.071Z,22.20
2017-07-06T22:12:15.424Z,22.20
2017-07-06T22:14:43.791Z,22.10
2017-07-06T22:17:12.859Z,22.10
2017-07-06T22:19:41.371Z,22.00
2017-07-06T22:22:10.463Z,22.00
2017-07-06T22:24:39.538Z,22.00
2017-07-06T22:27:07.866Z,22.00
2017-07-06T22:29:36.216Z,22.10
2017-07-06T22:32:05.310Z,22.10
2017-07-06T22:34:34.375Z,22.10
2017-07-06T22:37:02.887Z,22.00
2017-07-06T22:39:31.285Z,22.10
2017-07-06T22:42:00.358Z,22.10
2017-07-06T22:44:28.744Z,22.00
2017-07-06T22:46:57.058Z,22.10
2017-07-06T22:49:25.588Z,22.00
2017-07-06T22:51:54.794Z,21.90
2017-07-06T22:54:24.415Z,21.90
2017-07-06T22:56:52.819Z,21.90
2017-07-06T22:59:21.894Z,21.90
2017-07-06T23:01:50.210Z,21.90
2017-07-06T23:04:18.622Z,21.80
2017-07-06T23:06:47.817Z,21.80
2017-07-06T23:09:16.883Z,21.80
2017-07-06T23:11:45.291Z,21.80
2017-07-06T23:14:14.384Z,21.80
2017-07-06T23:16:42.769Z,21.80
2017-07-06T23:19:11.451Z,21.80
2017-07-06T23:21:40.547Z,21.70
2017-07-06T23:24:09.955Z,21.70
2017-07-06T23:26:39.144Z,21.80
2017-07-06T23:29:08.202Z,21.80
2017-07-06T23:31:36.614Z,21.70
2017-07-06T23:34:05.683Z,21.80
2017-07-06T23:36:34.004Z,21.80
2017-07-06T23:39:02.367Z,21.90
2017-07-06T23:41:31.552Z,21.90
2017-07-06T23:44:00.623Z,21.90
2017-07-06T23:46:28.934Z,21.80
2017-07-06T23:48:57.243Z,21.90
2017-07-06T23:51:25.766Z,22.00
2017-07-06T23:53:54.087Z,21.90
2017-07-06T23:56:22.382Z,21.90
2017-07-06T23:58:50.725Z,22.00
